LSZR/ACH METAR and TAF weather

Enter ICAO airport designator
Station Type Date Time Source
LSZR METAR 2020/04/05 21:50 UTC NOAA

LSZR 052150Z AUTO VRB02KT CAVOK 08/03 Q1020


Station Type Date Time Source
LSZR Decoded METAR 2020/04/05 21:50 UTC NOAA

Saint Gallen-Altenrhein, Switzerland (LSZR) 47-29-06N 009-33-43E
Apr 05, 2020 - 05:50 PM EDT / 2020.04.05 2150 UTC
Wind: Variable at 2 MPH (2 KT):0
Visibility: greater than 7 mile(s):0
Temperature: 46 F (8 C)
Dew Point: 37 F (3 C)
Relative Humidity: 70%
Pressure (altimeter): 30.12 in. Hg (1020 hPa)
ob: LSZR 052150Z AUTO VRB02KT CAVOK 08/03 Q1020
cycle: 22

Station Type Date Time Source
LSZR TAF 2014/12/22 20:03 UTC NOAA

TAF
AMD LSZR 222054Z 2220/2224 CNL

Example: see airport list